createdAt,value
2022-11-24T00:01:07.600Z,5.07
2022-11-24T00:03:34.617Z,5.82
2022-11-24T00:06:10.997Z,4.63
2022-11-24T00:08:39.328Z,4.90
2022-11-24T00:11:11.734Z,4.72
2022-11-24T00:13:41.771Z,6.53
2022-11-24T00:16:10.412Z,4.38
2022-11-24T00:18:37.561Z,3.97
2022-11-24T00:21:04.539Z,4.60
2022-11-24T00:23:31.210Z,8.18
2022-11-24T00:26:14.948Z,4.28
2022-11-24T00:28:43.448Z,5.25
2022-11-24T00:31:22.237Z,3.38
2022-11-24T00:33:50.622Z,5.00
2022-11-24T00:36:18.662Z,4.85
2022-11-24T00:38:46.149Z,6.03
2022-11-24T00:41:13.216Z,7.45
2022-11-24T00:43:40.053Z,4.35
2022-11-24T00:46:06.732Z,5.80
2022-11-24T00:48:38.321Z,6.38
2022-11-24T00:51:10.776Z,3.58
2022-11-24T00:53:37.576Z,4.43
2022-11-24T00:56:04.825Z,4.32
2022-11-24T00:58:33.513Z,4.10
2022-11-24T01:01:13.731Z,7.22
2022-11-24T01:03:41.150Z,9.63
2022-11-24T01:06:11.003Z,5.00
2022-11-24T01:08:39.033Z,5.28
2022-11-24T01:11:18.768Z,10.07
2022-11-24T01:13:50.065Z,5.07
2022-11-24T01:16:29.593Z,7.13
2022-11-24T01:18:56.589Z,6.18
2022-11-24T01:21:23.591Z,6.18
2022-11-24T01:23:52.021Z,7.90
2022-11-24T01:26:21.180Z,3.63
2022-11-24T01:28:52.097Z,8.68
2022-11-24T01:31:22.936Z,5.18
2022-11-24T01:33:49.572Z,6.60
2022-11-24T01:36:16.274Z,7.30
2022-11-24T01:38:42.851Z,8.38
2022-11-24T01:41:18.703Z,7.28
2022-11-24T01:43:45.863Z,7.45
2022-11-24T01:46:22.807Z,6.03
2022-11-24T01:48:57.009Z,12.02
2022-11-24T01:51:26.738Z,6.65
2022-11-24T01:54:08.184Z,11.15
2022-11-24T01:56:37.736Z,8.15
2022-11-24T01:59:07.565Z,9.75
2022-11-24T02:01:34.690Z,11.68
2022-11-24T02:04:07.063Z,15.45
2022-11-24T02:06:38.531Z,15.68
2022-11-24T02:09:21.894Z,12.27
2022-11-24T02:11:48.467Z,19.50
2022-11-24T02:14:18.453Z,24.88
2022-11-24T02:16:49.995Z,19.08
2022-11-24T02:19:40.300Z,13.68
2022-11-24T02:22:16.535Z,15.50
2022-11-24T02:25:06.096Z,17.08
2022-11-24T02:27:32.834Z,20.08
2022-11-24T02:29:59.903Z,22.60
2022-11-24T02:32:28.050Z,19.80
2022-11-24T02:35:07.769Z,17.77
2022-11-24T02:37:40.175Z,18.60
2022-11-24T02:40:07.607Z,19.60
2022-11-24T02:42:50.160Z,23.85
2022-11-24T02:45:19.728Z,22.75
2022-11-24T02:47:46.420Z,22.83
2022-11-24T02:50:13.094Z,22.02
2022-11-24T02:52:39.697Z,24.60
2022-11-24T02:55:08.806Z,21.25
2022-11-24T02:57:35.383Z,25.95
2022-11-24T03:00:02.015Z,22.50
2022-11-24T03:02:28.646Z,28.73
2022-11-24T03:04:55.381Z,23.25
2022-11-24T03:07:25.047Z,24.50
2022-11-24T03:09:54.630Z,25.13
2022-11-24T03:12:21.226Z,23.30
2022-11-24T03:14:51.927Z,22.70
2022-11-24T03:17:18.530Z,17.65
2022-11-24T03:19:45.243Z,22.90
2022-11-24T03:22:22.798Z,20.50
2022-11-24T03:24:49.392Z,21.98
2022-11-24T03:27:16.005Z,22.98
2022-11-24T03:29:42.627Z,20.13
2022-11-24T03:32:09.188Z,18.27
2022-11-24T03:34:36.034Z,25.70
2022-11-24T03:37:02.869Z,21.90
2022-11-24T03:39:32.702Z,25.98
2022-11-24T03:41:59.322Z,26.10
2022-11-24T03:44:25.904Z,22.98
2022-11-24T03:46:52.630Z,20.13
2022-11-24T03:49:19.284Z,22.25
2022-11-24T03:51:46.612Z,24.50
2022-11-24T03:54:16.554Z,29.33
2022-11-24T03:56:43.195Z,26.17
2022-11-24T03:59:09.809Z,27.95
2022-11-24T04:01:36.498Z,25.27
2022-11-24T04:04:03.200Z,26.65
2022-11-24T04:06:29.799Z,21.33
2022-11-24T04:08:56.441Z,21.00
2022-11-24T04:11:41.658Z,19.00
2022-11-24T04:14:13.311Z,29.02
2022-11-24T04:19:06.669Z,19.80
2022-11-24T04:21:34.878Z,25.20
2022-11-24T04:24:01.550Z,21.05
2022-11-24T04:26:28.183Z,20.75
2022-11-24T04:28:54.768Z,21.63
2022-11-24T04:31:28.959Z,20.60
2022-11-24T04:33:55.613Z,21.65
2022-11-24T04:36:22.147Z,26.35
2022-11-24T04:39:19.855Z,21.33
2022-11-24T04:41:37.309Z,17.85
2022-11-24T04:44:05.827Z,18.90
2022-11-24T04:46:32.480Z,17.23
2022-11-24T04:48:59.052Z,18.88
2022-11-24T04:51:25.612Z,21.65
2022-11-24T04:53:52.230Z,19.15
2022-11-24T04:56:18.810Z,19.85
2022-11-24T04:58:48.505Z,16.67
2022-11-24T05:01:15.432Z,15.63
2022-11-24T05:03:41.950Z,15.02
2022-11-24T05:06:16.146Z,16.38
2022-11-24T05:08:42.601Z,14.45
2022-11-24T05:11:09.166Z,17.80
2022-11-24T05:13:35.649Z,19.25
2022-11-24T05:16:02.264Z,15.13
2022-11-24T05:18:28.927Z,18.70
2022-11-24T05:20:55.749Z,16.15
2022-11-24T05:23:22.239Z,16.73
2022-11-24T05:25:48.776Z,29.38
2022-11-24T05:28:15.620Z,19.88
2022-11-24T05:30:42.451Z,19.17
2022-11-24T05:33:22.971Z,16.63
2022-11-24T05:35:50.103Z,19.45
2022-11-24T05:38:18.069Z,24.38
2022-11-24T05:40:44.888Z,18.45
2022-11-24T05:43:16.505Z,20.48
2022-11-24T05:45:47.421Z,13.20
2022-11-24T05:48:15.486Z,22.58
2022-11-24T05:50:42.302Z,21.00
2022-11-24T05:53:11.840Z,22.88
2022-11-24T05:55:40.028Z,23.67
2022-11-24T05:58:08.528Z,22.65
2022-11-24T06:00:36.791Z,21.27
2022-11-24T06:03:03.999Z,18.05
2022-11-24T06:05:30.740Z,17.90
2022-11-24T06:07:59.434Z,24.13
2022-11-24T06:10:26.057Z,24.20
2022-11-24T06:12:52.721Z,16.33
2022-11-24T06:15:19.499Z,24.05
2022-11-24T06:17:54.636Z,26.77
2022-11-24T06:20:22.129Z,22.98
2022-11-24T06:22:48.655Z,22.23
2022-11-24T06:25:16.265Z,20.80
2022-11-24T06:27:43.512Z,17.33
2022-11-24T06:30:10.899Z,24.92
2022-11-24T06:32:37.474Z,24.73
2022-11-24T06:35:04.803Z,17.00
2022-11-24T06:37:31.467Z,19.95
2022-11-24T06:40:00.206Z,21.35
2022-11-24T06:42:26.689Z,23.08
2022-11-24T06:44:55.950Z,16.83
2022-11-24T06:47:22.456Z,26.83
2022-11-24T06:49:48.979Z,29.63
2022-11-24T06:52:15.466Z,17.75
2022-11-24T06:54:45.264Z,22.08
2022-11-24T06:57:14.753Z,16.80
2022-11-24T06:59:41.305Z,17.80
2022-11-24T07:02:13.094Z,24.02
2022-11-24T07:04:39.619Z,26.80
2022-11-24T07:07:06.081Z,19.42
2022-11-24T07:09:32.587Z,21.02
2022-11-24T07:11:59.047Z,25.15
2022-11-24T07:14:25.548Z,25.77
2022-11-24T07:16:52.546Z,19.60
2022-11-24T07:19:25.711Z,21.58
2022-11-24T07:21:54.858Z,22.40
2022-11-24T07:24:21.335Z,26.30
2022-11-24T07:26:47.827Z,20.42
2022-11-24T07:29:14.326Z,21.52
2022-11-24T07:31:40.913Z,19.58
2022-11-24T07:34:07.411Z,22.05
2022-11-24T07:36:34.084Z,22.92
2022-11-24T07:39:00.569Z,13.38
2022-11-24T07:41:27.055Z,17.52
2022-11-24T07:43:56.759Z,26.23
2022-11-24T07:46:23.416Z,25.20
2022-11-24T07:48:49.965Z,22.35
2022-11-24T07:51:16.519Z,22.27
2022-11-24T07:53:43.483Z,20.42
2022-11-24T07:56:10.612Z,21.73
2022-11-24T07:58:40.721Z,22.30
2022-11-24T08:01:16.032Z,20.13
2022-11-24T08:03:43.383Z,20.42
2022-11-24T08:06:31.773Z,19.23
2022-11-24T08:08:58.524Z,24.58
2022-11-24T08:11:25.286Z,23.10
2022-11-24T08:13:54.551Z,15.27
2022-11-24T08:16:21.247Z,22.13
2022-11-24T08:18:52.827Z,22.73
2022-11-24T08:21:20.377Z,17.13
2022-11-24T08:23:47.214Z,14.57
2022-11-24T08:26:17.749Z,22.15
2022-11-24T08:28:45.628Z,19.75
2022-11-24T08:31:15.163Z,18.50
2022-11-24T08:33:45.472Z,26.25
2022-11-24T08:36:14.818Z,23.92
2022-11-24T08:38:41.849Z,26.23
2022-11-24T08:41:15.273Z,18.00
2022-11-24T08:43:42.255Z,24.67
2022-11-24T08:46:11.058Z,19.08
2022-11-24T08:48:38.089Z,22.92
2022-11-24T08:51:15.706Z,24.05
2022-11-24T08:53:43.423Z,22.80
2022-11-24T08:56:11.288Z,21.15
2022-11-24T08:58:38.615Z,16.10
2022-11-24T09:01:14.486Z,25.13
2022-11-24T09:03:46.610Z,25.40
2022-11-24T09:06:15.582Z,22.58
2022-11-24T09:08:42.697Z,21.55
2022-11-24T09:11:12.355Z,23.27
2022-11-24T09:13:39.656Z,23.40
2022-11-24T09:16:15.470Z,17.58
2022-11-24T09:18:45.145Z,17.52
2022-11-24T09:21:14.758Z,17.88
2022-11-24T09:23:41.742Z,14.55
2022-11-24T09:26:23.405Z,13.07
2022-11-24T09:28:50.262Z,19.58
2022-11-24T09:31:21.127Z,15.90
2022-11-24T09:33:49.072Z,12.95
2022-11-24T09:36:15.709Z,10.50
2022-11-24T09:38:42.544Z,14.07
2022-11-24T09:41:14.979Z,14.45
2022-11-24T09:43:46.327Z,9.13
2022-11-24T09:46:43.672Z,7.38
2022-11-24T09:49:17.784Z,13.93
2022-11-24T09:51:51.393Z,15.25
2022-11-24T09:54:26.448Z,11.07
2022-11-24T09:56:53.038Z,12.13
2022-11-24T09:59:25.155Z,15.20
2022-11-24T10:01:52.428Z,14.07
2022-11-24T10:04:32.041Z,15.23
2022-11-24T10:07:22.993Z,18.08
2022-11-24T10:09:58.814Z,17.90
2022-11-24T10:12:28.120Z,12.18
2022-11-24T10:15:04.677Z,13.48
2022-11-24T10:17:56.099Z,12.65
2022-11-24T10:20:48.471Z,14.17
2022-11-24T10:23:41.857Z,11.02
2022-11-24T10:26:19.014Z,11.02
2022-11-24T10:28:53.335Z,11.43
2022-11-24T10:31:41.825Z,10.57
2022-11-24T10:34:16.811Z,17.25
2022-11-24T10:36:58.338Z,13.23
2022-11-24T10:40:26.979Z,14.95
2022-11-24T10:42:58.197Z,11.23
2022-11-24T10:45:27.435Z,14.52
2022-11-24T10:47:53.935Z,15.32
2022-11-24T10:50:27.175Z,13.70
2022-11-24T10:53:13.877Z,18.52
2022-11-24T10:55:58.266Z,20.63
2022-11-24T10:58:38.924Z,13.80
2022-11-24T11:01:32.014Z,16.65
2022-11-24T11:04:01.475Z,15.55
2022-11-24T11:06:30.221Z,16.50
2022-11-24T11:09:09.278Z,17.20
2022-11-24T11:11:39.189Z,14.52
2022-11-24T11:14:12.866Z,19.27
2022-11-24T11:16:42.164Z,18.60
2022-11-24T11:20:01.707Z,11.30
2022-11-24T11:22:37.408Z,14.95
2022-11-24T11:25:07.285Z,17.08
2022-11-24T11:27:36.951Z,14.20
2022-11-24T11:36:15.582Z,19.92
2022-11-24T11:38:43.577Z,20.90
2022-11-24T11:41:21.680Z,19.95
2022-11-24T11:43:56.252Z,17.67
2022-11-24T11:46:26.504Z,18.33
2022-11-24T11:48:53.119Z,15.48
2022-11-24T11:51:29.856Z,11.80
2022-11-24T11:54:26.941Z,12.98
2022-11-24T11:57:47.761Z,10.85
2022-11-24T12:00:21.913Z,10.75
2022-11-24T12:02:53.095Z,12.38
2022-11-24T12:05:38.946Z,16.55
2022-11-24T12:08:21.026Z,15.90
2022-11-24T12:10:48.012Z,15.80
2022-11-24T12:13:41.976Z,18.15
2022-11-24T12:16:34.464Z,18.13
2022-11-24T12:19:13.039Z,15.10
2022-11-24T12:22:05.667Z,15.15
2022-11-24T12:24:45.113Z,13.95
2022-11-24T12:27:50.155Z,16.75
2022-11-24T12:30:18.855Z,13.88
2022-11-24T12:33:05.507Z,15.00
2022-11-24T12:35:58.832Z,15.82
2022-11-24T12:38:43.728Z,12.57
2022-11-24T12:41:40.298Z,9.75
2022-11-24T12:44:27.620Z,13.65
2022-11-24T12:47:10.961Z,14.75
2022-11-24T12:50:14.759Z,12.13
2022-11-24T12:52:58.500Z,9.82
2022-11-24T12:55:27.584Z,12.15
2022-11-24T12:58:09.350Z,14.40
2022-11-24T13:01:17.048Z,12.80
2022-11-24T13:04:11.589Z,13.88
2022-11-24T13:06:51.531Z,12.68
2022-11-24T13:09:18.055Z,12.07
2022-11-24T13:11:47.039Z,10.07
2022-11-24T13:14:33.370Z,12.73
2022-11-24T13:17:31.045Z,15.50
2022-11-24T13:20:20.360Z,14.45
2022-11-24T13:23:20.455Z,13.07
2022-11-24T13:26:31.080Z,11.00
2022-11-24T13:29:13.472Z,17.65
2022-11-24T13:31:51.280Z,16.77
2022-11-24T13:34:44.931Z,11.15
2022-11-24T13:37:26.467Z,10.95
2022-11-24T13:40:01.165Z,13.07
2022-11-24T13:42:41.768Z,10.35
2022-11-24T13:45:40.502Z,11.38
2022-11-24T13:48:19.882Z,11.65
2022-11-24T13:50:58.486Z,12.15
2022-11-24T13:53:33.388Z,12.50
2022-11-24T13:56:03.370Z,9.40
2022-11-24T13:58:37.513Z,13.15
2022-11-24T14:01:11.430Z,9.20
2022-11-24T14:04:28.727Z,9.30
2022-11-24T14:07:07.009Z,10.93
2022-11-24T14:09:52.594Z,14.43
2022-11-24T14:12:27.870Z,13.20
2022-11-24T14:14:57.138Z,11.25
2022-11-24T14:17:27.583Z,13.07
2022-11-24T14:19:56.445Z,8.85
2022-11-24T14:22:39.335Z,7.82
2022-11-24T14:25:06.447Z,8.27
2022-11-24T14:27:37.434Z,7.43
2022-11-24T14:30:25.015Z,10.15
2022-11-24T14:33:01.856Z,7.40
2022-11-24T14:35:33.841Z,12.85
2022-11-24T14:40:54.376Z,7.85
2022-11-24T14:43:22.684Z,7.07
2022-11-24T14:45:57.251Z,5.15
2022-11-24T14:48:29.184Z,13.88
2022-11-24T14:53:32.379Z,8.00
2022-11-24T14:56:31.719Z,5.88
2022-11-24T14:58:59.179Z,11.13
2022-11-24T15:01:28.669Z,7.38
2022-11-24T15:04:39.011Z,14.07
2022-11-24T15:07:13.383Z,10.07
2022-11-24T15:09:48.973Z,6.93
2022-11-24T15:12:34.727Z,5.85
2022-11-24T15:15:06.379Z,9.13
2022-11-24T15:17:34.106Z,8.00
2022-11-24T15:20:03.435Z,7.25
2022-11-24T15:22:44.745Z,11.05
2022-11-24T15:25:32.459Z,9.43
2022-11-24T15:27:59.957Z,8.45
2022-11-24T15:30:27.161Z,7.90
2022-11-24T15:32:58.324Z,7.20
2022-11-24T15:35:29.928Z,6.60
2022-11-24T15:37:57.680Z,11.80
2022-11-24T15:40:24.806Z,12.35
2022-11-24T15:42:55.857Z,13.32
2022-11-24T15:45:25.034Z,13.95
2022-11-24T15:47:51.923Z,12.70
2022-11-24T15:50:19.441Z,17.25
2022-11-24T15:52:47.428Z,10.20
2022-11-24T15:55:22.015Z,12.85
2022-11-24T15:57:49.225Z,12.10
2022-11-24T16:00:24.815Z,12.18
2022-11-24T16:02:51.323Z,8.82
2022-11-24T16:05:18.024Z,12.70
2022-11-24T16:07:45.023Z,12.95
2022-11-24T16:10:31.265Z,10.60
2022-11-24T16:12:57.831Z,14.57
2022-11-24T16:15:24.692Z,11.38
2022-11-24T16:17:51.273Z,12.52
2022-11-24T16:20:17.875Z,14.27
2022-11-24T16:22:44.741Z,9.35
2022-11-24T16:25:14.521Z,8.88
2022-11-24T16:27:41.190Z,13.88
2022-11-24T16:30:10.905Z,13.70
2022-11-24T16:32:37.418Z,10.98
2022-11-24T16:35:04.507Z,9.35
2022-11-24T16:37:34.608Z,7.32
2022-11-24T16:40:02.494Z,12.02
2022-11-24T16:42:29.412Z,6.65
2022-11-24T16:44:55.946Z,10.82
2022-11-24T16:47:25.702Z,10.95
2022-11-24T16:49:52.247Z,10.63
2022-11-24T16:52:18.994Z,13.88
2022-11-24T16:54:47.382Z,12.82
2022-11-24T16:57:15.313Z,18.67
2022-11-24T16:59:51.701Z,14.27
2022-11-24T17:02:18.928Z,13.70
2022-11-24T17:04:45.584Z,14.95
2022-11-24T17:07:13.817Z,14.00
2022-11-24T17:09:40.933Z,12.38
2022-11-24T17:12:07.717Z,12.70
2022-11-24T17:14:34.496Z,14.35
2022-11-24T17:17:01.311Z,13.40
2022-11-24T17:19:28.522Z,9.02
2022-11-24T17:21:55.032Z,11.77
2022-11-24T17:24:21.586Z,8.90
2022-11-24T17:26:50.897Z,10.13
2022-11-24T17:29:19.813Z,16.30
2022-11-24T17:31:46.406Z,15.50
2022-11-24T17:34:13.009Z,13.48
2022-11-24T17:36:45.933Z,20.13
2022-11-24T17:39:12.450Z,17.77
2022-11-24T17:41:39.025Z,14.60
2022-11-24T17:44:10.637Z,23.15
2022-11-24T17:46:37.604Z,18.83
2022-11-24T17:49:04.154Z,19.40
2022-11-24T17:51:30.754Z,17.85
2022-11-24T17:54:05.971Z,18.30
2022-11-24T17:56:47.055Z,18.65
2022-11-24T17:59:13.897Z,22.60
2022-11-24T18:01:40.502Z,22.67
2022-11-24T18:04:07.011Z,25.67
2022-11-24T18:06:34.180Z,28.25
2022-11-24T18:09:00.709Z,20.85
2022-11-24T18:11:31.702Z,16.40
2022-11-24T18:14:02.269Z,23.15
2022-11-24T18:16:34.166Z,29.58
2022-11-24T18:19:09.405Z,21.77
2022-11-24T18:21:41.283Z,21.25
2022-11-24T18:24:09.762Z,19.75
2022-11-24T18:26:37.639Z,27.55
2022-11-24T18:29:04.542Z,20.25
2022-11-24T18:31:32.243Z,17.15
2022-11-24T18:33:59.325Z,21.15
2022-11-24T18:36:29.905Z,17.52
2022-11-24T18:39:00.395Z,20.85
2022-11-24T18:41:27.135Z,18.27
2022-11-24T18:43:53.942Z,21.17
2022-11-24T18:46:20.506Z,24.40
2022-11-24T18:48:47.260Z,19.48
2022-11-24T18:51:17.658Z,16.73
2022-11-24T18:53:46.065Z,18.52
2022-11-24T18:56:15.664Z,20.38
2022-11-24T18:58:43.018Z,23.27
2022-11-24T19:01:15.634Z,17.70
2022-11-24T19:03:51.473Z,13.60
2022-11-24T19:06:28.666Z,17.30
2022-11-24T19:08:55.957Z,16.55
2022-11-24T19:11:33.862Z,15.63
2022-11-24T19:14:01.724Z,13.75
2022-11-24T19:16:28.258Z,18.98
2022-11-24T19:19:02.486Z,14.48
2022-11-24T19:21:31.603Z,19.58
2022-11-24T19:24:04.163Z,14.73
2022-11-24T19:26:31.824Z,18.15
2022-11-24T19:29:03.856Z,16.27
2022-11-24T19:33:58.645Z,18.38
2022-11-24T19:36:26.272Z,19.08
2022-11-24T19:38:57.255Z,15.27
2022-11-24T19:41:27.100Z,14.82
2022-11-24T19:43:54.566Z,17.17
2022-11-24T19:46:26.197Z,19.58
2022-11-24T19:48:59.617Z,16.45
2022-11-24T19:51:30.841Z,22.15
2022-11-24T19:53:57.593Z,15.35
2022-11-24T19:56:27.047Z,21.85
2022-11-24T19:58:54.543Z,16.45
2022-11-24T20:01:24.768Z,21.58
2022-11-24T20:04:03.692Z,16.10
2022-11-24T20:06:36.808Z,15.65
2022-11-24T20:09:06.181Z,19.42
2022-11-24T20:11:32.747Z,16.92
2022-11-24T20:14:03.102Z,18.48
2022-11-24T20:16:31.638Z,20.10
2022-11-24T20:19:05.771Z,16.88
2022-11-24T20:21:33.146Z,14.63
2022-11-24T20:24:03.804Z,15.93
2022-11-24T20:26:40.108Z,18.55
2022-11-24T20:29:09.824Z,20.05
2022-11-24T20:31:38.398Z,20.58
2022-11-24T20:34:07.244Z,16.38
2022-11-24T20:36:35.415Z,21.83
2022-11-24T20:39:05.597Z,12.63
2022-11-24T20:41:34.750Z,14.02
2022-11-24T20:44:08.133Z,21.38
2022-11-24T20:46:40.345Z,15.93
2022-11-24T20:49:08.749Z,20.30
2022-11-24T20:51:39.023Z,17.50
2022-11-24T20:54:10.939Z,18.23
2022-11-24T20:56:40.890Z,21.23
2022-11-24T20:59:09.094Z,22.90
2022-11-24T21:01:38.657Z,15.90
2022-11-24T21:04:07.953Z,25.75
2022-11-24T21:06:35.733Z,15.40
2022-11-24T21:09:04.183Z,21.48
2022-11-24T21:11:31.674Z,15.07
2022-11-24T21:13:58.644Z,18.17
2022-11-24T21:16:30.140Z,17.63
2022-11-24T21:19:12.579Z,18.63
2022-11-24T21:21:40.115Z,19.02
2022-11-24T21:24:12.547Z,16.45
2022-11-24T21:26:40.276Z,14.25
2022-11-24T21:29:07.420Z,21.33
2022-11-24T21:31:38.299Z,18.33
2022-11-24T21:34:06.146Z,9.43
2022-11-24T21:36:34.908Z,18.80
2022-11-24T21:39:02.683Z,17.70
2022-11-24T21:41:32.137Z,19.02
2022-11-24T21:43:59.158Z,19.30
2022-11-24T21:46:28.181Z,16.52
2022-11-24T21:48:54.717Z,12.73
2022-11-24T21:51:21.269Z,16.33
2022-11-24T21:53:48.075Z,24.60
2022-11-24T21:56:17.590Z,15.05
2022-11-24T21:58:48.108Z,20.23
2022-11-24T22:01:17.663Z,18.45
2022-11-24T22:03:45.716Z,17.63
2022-11-24T22:06:12.959Z,15.27
2022-11-24T22:08:39.512Z,13.70
2022-11-24T22:11:11.321Z,17.58
2022-11-24T22:13:37.829Z,16.05
2022-11-24T22:16:10.069Z,16.25
2022-11-24T22:18:38.847Z,19.00
2022-11-24T22:21:07.396Z,15.80
2022-11-24T22:23:35.924Z,18.85
2022-11-24T22:26:07.536Z,17.92
2022-11-24T22:28:37.332Z,19.70
2022-11-24T22:31:18.201Z,19.80
2022-11-24T22:33:45.331Z,17.25
2022-11-24T22:36:13.891Z,20.45
2022-11-24T22:38:41.112Z,20.23
2022-11-24T22:41:16.420Z,14.90
2022-11-24T22:43:44.490Z,17.20
2022-11-24T22:46:25.360Z,20.55
2022-11-24T22:48:53.264Z,18.05
2022-11-24T22:51:22.343Z,18.42
2022-11-24T22:53:58.292Z,20.25
2022-11-24T22:56:28.195Z,16.40
2022-11-24T22:59:02.005Z,17.10
2022-11-24T23:01:29.845Z,14.80
2022-11-24T23:03:56.994Z,16.92
2022-11-24T23:06:26.189Z,19.38
2022-11-24T23:08:52.968Z,16.33
2022-11-24T23:11:27.335Z,17.25
2022-11-24T23:14:00.470Z,17.10
2022-11-24T23:16:34.279Z,16.60
2022-11-24T23:19:03.880Z,18.25
2022-11-24T23:21:32.409Z,23.05
2022-11-24T23:24:00.994Z,14.73
2022-11-24T23:26:39.106Z,14.85
2022-11-24T23:29:07.185Z,15.65
2022-11-24T23:31:33.746Z,24.23
2022-11-24T23:34:02.927Z,17.45
2022-11-24T23:36:30.227Z,17.42
2022-11-24T23:39:00.832Z,15.88
2022-11-24T23:41:30.069Z,14.63
2022-11-24T23:43:56.558Z,23.35
2022-11-24T23:46:24.923Z,22.92
2022-11-24T23:48:53.330Z,19.55
2022-11-24T23:51:25.135Z,18.52
2022-11-24T23:53:52.289Z,20.60
2022-11-24T23:56:39.174Z,18.10
2022-11-24T23:59:05.671Z,18.65
